sensor_id;sensor_type;location;lat;lon;timestamp;temperature;humidity
40151;DHT22;25866;52.420;10.640;2022-12-29T00:02:09;8.80;99.90
40151;DHT22;25866;52.420;10.640;2022-12-29T00:04:35;8.70;99.90
40151;DHT22;25866;52.420;10.640;2022-12-29T00:07:00;8.80;99.90
40151;DHT22;25866;52.420;10.640;2022-12-29T00:09:28;8.80;99.90
40151;DHT22;25866;52.420;10.640;2022-12-29T00:11:54;8.80;99.90
40151;DHT22;25866;52.420;10.640;2022-12-29T00:14:20;8.80;99.90
40151;DHT22;25866;52.420;10.640;2022-12-29T00:17:04;8.90;99.90
40151;DHT22;25866;52.420;10.640;2022-12-29T00:19:30;8.80;99.90
40151;DHT22;25866;52.420;10.640;2022-12-29T00:22:14;8.90;99.90
40151;DHT22;25866;52.420;10.640;2022-12-29T00:24:59;8.90;99.90
40151;DHT22;25866;52.420;10.640;2022-12-29T00:27:35;9.00;99.90
40151;DHT22;25866;52.420;10.640;2022-12-29T00:30:22;9.00;99.90
40151;DHT22;25866;52.420;10.640;2022-12-29T00:33:11;9.00;99.90
40151;DHT22;25866;52.420;10.640;2022-12-29T00:36:09;9.00;99.90
40151;DHT22;25866;52.420;10.640;2022-12-29T00:38:39;9.00;99.90
40151;DHT22;25866;52.420;10.640;2022-12-29T00:41:24;9.00;99.90
40151;DHT22;25866;52.420;10.640;2022-12-29T00:44:10;9.10;99.90
40151;DHT22;25866;52.420;10.640;2022-12-29T00:46:37;9.00;99.90
40151;DHT22;25866;52.420;10.640;2022-12-29T00:49:07;9.00;99.90
40151;DHT22;25866;52.420;10.640;2022-12-29T00:51:52;9.10;99.90
40151;DHT22;25866;52.420;10.640;2022-12-29T00:54:19;9.10;99.90
40151;DHT22;25866;52.420;10.640;2022-12-29T00:56:50;9.10;99.90
40151;DHT22;25866;52.420;10.640;2022-12-29T00:59:24;9.10;99.90
40151;DHT22;25866;52.420;10.640;2022-12-29T01:01:51;9.10;99.90
40151;DHT22;25866;52.420;10.640;2022-12-29T01:04:18;9.10;99.90
40151;DHT22;25866;52.420;10.640;2022-12-29T01:06:44;9.10;99.90
40151;DHT22;25866;52.420;10.640;2022-12-29T01:09:11;9.10;99.90
40151;DHT22;25866;52.420;10.640;2022-12-29T01:11:55;9.20;99.90
40151;DHT22;25866;52.420;10.640;2022-12-29T01:14:22;9.20;99.90
40151;DHT22;25866;52.420;10.640;2022-12-29T01:16:48;9.20;99.90
40151;DHT22;25866;52.420;10.640;2022-12-29T01:19:16;9.20;99.90
40151;DHT22;25866;52.420;10.640;2022-12-29T01:21:42;9.20;99.90
40151;DHT22;25866;52.420;10.640;2022-12-29T01:24:09;9.20;99.90
40151;DHT22;25866;52.420;10.640;2022-12-29T01:26:35;9.20;99.90
40151;DHT22;25866;52.420;10.640;2022-12-29T01:29:00;9.30;99.90
40151;DHT22;25866;52.420;10.640;2022-12-29T01:31:29;9.30;99.90
40151;DHT22;25866;52.420;10.640;2022-12-29T01:33:55;9.30;99.90
40151;DHT22;25866;52.420;10.640;2022-12-29T01:36:20;9.30;99.90
40151;DHT22;25866;52.420;10.640;2022-12-29T01:38:46;9.30;99.90
40151;DHT22;25866;52.420;10.640;2022-12-29T01:41:15;9.40;99.90
40151;DHT22;25866;52.420;10.640;2022-12-29T01:46:52;9.40;99.90
40151;DHT22;25866;52.420;10.640;2022-12-29T01:49:24;9.50;99.90
40151;DHT22;25866;52.420;10.640;2022-12-29T01:51:57;9.50;99.90
40151;DHT22;25866;52.420;10.640;2022-12-29T01:57:01;9.50;99.90
40151;DHT22;25866;52.420;10.640;2022-12-29T01:59:31;9.40;99.90
40151;DHT22;25866;52.420;10.640;2022-12-29T02:01:58;9.40;99.90
40151;DHT22;25866;52.420;10.640;2022-12-29T02:04:26;9.40;99.90
40151;DHT22;25866;52.420;10.640;2022-12-29T02:07:03;9.40;99.90
40151;DHT22;25866;52.420;10.640;2022-12-29T02:09:30;9.50;99.90
40151;DHT22;25866;52.420;10.640;2022-12-29T02:11:57;9.40;99.90
40151;DHT22;25866;52.420;10.640;2022-12-29T02:14:23;9.40;99.90
40151;DHT22;25866;52.420;10.640;2022-12-29T02:31:20;9.30;99.90
40151;DHT22;25866;52.420;10.640;2022-12-29T02:36:45;9.20;99.90
40151;DHT22;25866;52.420;10.640;2022-12-29T02:42:02;9.20;99.90
40151;DHT22;25866;52.420;10.640;2022-12-29T02:44:59;9.10;99.90
40151;DHT22;25866;52.420;10.640;2022-12-29T02:50:07;9.20;99.90
40151;DHT22;25866;52.420;10.640;2022-12-29T02:52:58;9.20;99.90
40151;DHT22;25866;52.420;10.640;2022-12-29T02:55:25;9.20;99.90
40151;DHT22;25866;52.420;10.640;2022-12-29T02:58:19;9.20;99.90
40151;DHT22;25866;52.420;10.640;2022-12-29T03:03:32;9.30;99.90
40151;DHT22;25866;52.420;10.640;2022-12-29T03:06:20;9.30;99.90
40151;DHT22;25866;52.420;10.640;2022-12-29T03:09:03;9.30;99.90
40151;DHT22;25866;52.420;10.640;2022-12-29T03:14:14;9.40;99.90
40151;DHT22;25866;52.420;10.640;2022-12-29T03:17:24;9.40;99.90
40151;DHT22;25866;52.420;10.640;2022-12-29T03:19:55;9.40;99.90
40151;DHT22;25866;52.420;10.640;2022-12-29T03:22:28;9.40;99.90
40151;DHT22;25866;52.420;10.640;2022-12-29T03:25:10;9.40;99.90
40151;DHT22;25866;52.420;10.640;2022-12-29T03:27:49;9.40;99.90
40151;DHT22;25866;52.420;10.640;2022-12-29T03:30:16;9.40;99.90
40151;DHT22;25866;52.420;10.640;2022-12-29T03:32:48;9.40;99.90
40151;DHT22;25866;52.420;10.640;2022-12-29T03:35:19;9.40;99.90
40151;DHT22;25866;52.420;10.640;2022-12-29T03:40:52;9.50;99.90
40151;DHT22;25866;52.420;10.640;2022-12-29T03:43:22;9.50;99.90
40151;DHT22;25866;52.420;10.640;2022-12-29T03:45:48;9.60;99.90
40151;DHT22;25866;52.420;10.640;2022-12-29T03:48:14;9.60;99.90
40151;DHT22;25866;52.420;10.640;2022-12-29T03:50:40;9.60;99.90
40151;DHT22;25866;52.420;10.640;2022-12-29T03:53:05;9.70;99.90
40151;DHT22;25866;52.420;10.640;2022-12-29T03:55:31;9.70;99.90
40151;DHT22;25866;52.420;10.640;2022-12-29T03:57:57;9.70;99.90
40151;DHT22;25866;52.420;10.640;2022-12-29T04:00:22;9.70;99.90
40151;DHT22;25866;52.420;10.640;2022-12-29T04:02:48;9.80;99.90
40151;DHT22;25866;52.420;10.640;2022-12-29T04:05:15;9.80;99.90
40151;DHT22;25866;52.420;10.640;2022-12-29T04:07:41;9.80;99.90
40151;DHT22;25866;52.420;10.640;2022-12-29T04:10:06;9.90;99.90
40151;DHT22;25866;52.420;10.640;2022-12-29T04:12:32;10.00;99.90
40151;DHT22;25866;52.420;10.640;2022-12-29T04:14:58;10.00;99.90
40151;DHT22;25866;52.420;10.640;2022-12-29T04:17:24;9.90;99.90
40151;DHT22;25866;52.420;10.640;2022-12-29T04:19:49;9.90;99.90
40151;DHT22;25866;52.420;10.640;2022-12-29T04:22:15;9.80;99.90
40151;DHT22;25866;52.420;10.640;2022-12-29T04:24:41;9.80;99.90
40151;DHT22;25866;52.420;10.640;2022-12-29T04:27:06;9.80;99.90
40151;DHT22;25866;52.420;10.640;2022-12-29T04:29:32;9.90;99.90
40151;DHT22;25866;52.420;10.640;2022-12-29T04:31:58;9.80;99.90
40151;DHT22;25866;52.420;10.640;2022-12-29T04:34:23;9.90;99.90
40151;DHT22;25866;52.420;10.640;2022-12-29T04:36:49;9.80;99.90
40151;DHT22;25866;52.420;10.640;2022-12-29T04:39:15;9.80;99.90
40151;DHT22;25866;52.420;10.640;2022-12-29T04:41:40;9.80;99.90
40151;DHT22;25866;52.420;10.640;2022-12-29T04:44:07;9.80;99.90
40151;DHT22;25866;52.420;10.640;2022-12-29T04:46:33;9.80;99.90
40151;DHT22;25866;52.420;10.640;2022-12-29T04:48:58;9.80;99.90
40151;DHT22;25866;52.420;10.640;2022-12-29T04:51:26;9.80;99.90
40151;DHT22;25866;52.420;10.640;2022-12-29T04:53:52;9.90;99.90
40151;DHT22;25866;52.420;10.640;2022-12-29T04:56:18;10.00;99.90
40151;DHT22;25866;52.420;10.640;2022-12-29T04:58:44;10.10;99.90
40151;DHT22;25866;52.420;10.640;2022-12-29T05:01:09;10.10;99.90
40151;DHT22;25866;52.420;10.640;2022-12-29T05:03:35;10.10;99.90
40151;DHT22;25866;52.420;10.640;2022-12-29T05:06:00;10.10;99.90
40151;DHT22;25866;52.420;10.640;2022-12-29T05:08:26;10.10;99.90
40151;DHT22;25866;52.420;10.640;2022-12-29T05:10:52;10.10;99.90
40151;DHT22;25866;52.420;10.640;2022-12-29T05:13:18;10.10;99.90
40151;DHT22;25866;52.420;10.640;2022-12-29T05:15:53;10.20;99.90
40151;DHT22;25866;52.420;10.640;2022-12-29T05:18:19;10.20;99.90
40151;DHT22;25866;52.420;10.640;2022-12-29T05:20:46;10.20;99.90
40151;DHT22;25866;52.420;10.640;2022-12-29T05:23:12;10.20;99.90
40151;DHT22;25866;52.420;10.640;2022-12-29T05:25:38;10.20;99.90
40151;DHT22;25866;52.420;10.640;2022-12-29T05:28:04;10.20;99.90
40151;DHT22;25866;52.420;10.640;2022-12-29T05:30:29;10.20;99.90
40151;DHT22;25866;52.420;10.640;2022-12-29T05:32:55;10.30;99.90
40151;DHT22;25866;52.420;10.640;2022-12-29T05:35:21;10.30;99.90
40151;DHT22;25866;52.420;10.640;2022-12-29T05:37:46;10.30;99.90
40151;DHT22;25866;52.420;10.640;2022-12-29T05:40:12;10.30;99.90
40151;DHT22;25866;52.420;10.640;2022-12-29T05:42:38;10.20;99.90
40151;DHT22;25866;52.420;10.640;2022-12-29T05:45:04;10.10;99.90
40151;DHT22;25866;52.420;10.640;2022-12-29T05:47:32;10.10;99.90
40151;DHT22;25866;52.420;10.640;2022-12-29T05:49:58;10.10;99.90
40151;DHT22;25866;52.420;10.640;2022-12-29T05:52:24;10.00;99.90
40151;DHT22;25866;52.420;10.640;2022-12-29T05:54:49;10.10;99.90
40151;DHT22;25866;52.420;10.640;2022-12-29T05:57:15;10.10;99.90
40151;DHT22;25866;52.420;10.640;2022-12-29T05:59:41;10.10;99.90
40151;DHT22;25866;52.420;10.640;2022-12-29T06:02:06;10.10;99.90
40151;DHT22;25866;52.420;10.640;2022-12-29T06:04:32;10.20;99.90
40151;DHT22;25866;52.420;10.640;2022-12-29T06:06:58;10.20;99.90
40151;DHT22;25866;52.420;10.640;2022-12-29T06:09:23;10.30;99.90
40151;DHT22;25866;52.420;10.640;2022-12-29T06:11:49;10.20;99.90
40151;DHT22;25866;52.420;10.640;2022-12-29T06:14:14;10.20;99.90
40151;DHT22;25866;52.420;10.640;2022-12-29T06:16:40;10.30;99.90
40151;DHT22;25866;52.420;10.640;2022-12-29T06:19:07;10.30;99.90
40151;DHT22;25866;52.420;10.640;2022-12-29T06:21:33;10.30;99.90
40151;DHT22;25866;52.420;10.640;2022-12-29T06:23:58;10.20;99.90
40151;DHT22;25866;52.420;10.640;2022-12-29T06:26:24;10.20;99.90
40151;DHT22;25866;52.420;10.640;2022-12-29T06:28:49;10.30;99.90
40151;DHT22;25866;52.420;10.640;2022-12-29T06:31:15;10.30;99.90
40151;DHT22;25866;52.420;10.640;2022-12-29T06:33:41;10.40;99.90
40151;DHT22;25866;52.420;10.640;2022-12-29T06:36:08;10.50;99.90
40151;DHT22;25866;52.420;10.640;2022-12-29T06:38:34;10.50;99.90
40151;DHT22;25866;52.420;10.640;2022-12-29T06:41:00;10.40;99.90
40151;DHT22;25866;52.420;10.640;2022-12-29T06:43:26;10.50;99.90
40151;DHT22;25866;52.420;10.640;2022-12-29T06:45:51;10.60;99.90
40151;DHT22;25866;52.420;10.640;2022-12-29T06:48:17;10.50;99.90
40151;DHT22;25866;52.420;10.640;2022-12-29T06:50:43;10.50;99.90
40151;DHT22;25866;52.420;10.640;2022-12-29T06:53:08;10.50;99.90
40151;DHT22;25866;52.420;10.640;2022-12-29T06:55:35;10.40;99.90
40151;DHT22;25866;52.420;10.640;2022-12-29T06:58:01;10.30;99.90
40151;DHT22;25866;52.420;10.640;2022-12-29T07:00:27;10.30;99.90
40151;DHT22;25866;52.420;10.640;2022-12-29T07:02:54;10.40;99.90
40151;DHT22;25866;52.420;10.640;2022-12-29T07:05:24;10.40;99.90
40151;DHT22;25866;52.420;10.640;2022-12-29T07:07:51;10.50;99.90
40151;DHT22;25866;52.420;10.640;2022-12-29T07:10:17;10.60;99.90
40151;DHT22;25866;52.420;10.640;2022-12-29T07:12:43;10.60;99.90
40151;DHT22;25866;52.420;10.640;2022-12-29T07:15:10;10.60;99.90
40151;DHT22;25866;52.420;10.640;2022-12-29T07:17:35;10.60;99.90
40151;DHT22;25866;52.420;10.640;2022-12-29T07:20:01;10.70;99.90
40151;DHT22;25866;52.420;10.640;2022-12-29T07:22:27;10.80;99.90
40151;DHT22;25866;52.420;10.640;2022-12-29T07:24:53;10.80;99.90
40151;DHT22;25866;52.420;10.640;2022-12-29T07:27:18;10.70;99.90
40151;DHT22;25866;52.420;10.640;2022-12-29T07:29:44;10.70;99.90
40151;DHT22;25866;52.420;10.640;2022-12-29T07:32:09;10.70;99.90
40151;DHT22;25866;52.420;10.640;2022-12-29T07:34:35;10.80;99.90
40151;DHT22;25866;52.420;10.640;2022-12-29T07:37:01;10.70;99.90
40151;DHT22;25866;52.420;10.640;2022-12-29T07:39:26;10.70;99.90
40151;DHT22;25866;52.420;10.640;2022-12-29T07:41:52;10.80;99.90
40151;DHT22;25866;52.420;10.640;2022-12-29T07:44:18;10.80;99.90
40151;DHT22;25866;52.420;10.640;2022-12-29T07:46:43;10.80;99.90
40151;DHT22;25866;52.420;10.640;2022-12-29T07:49:09;10.80;99.90
40151;DHT22;25866;52.420;10.640;2022-12-29T07:51:35;10.80;99.90
40151;DHT22;25866;52.420;10.640;2022-12-29T07:54:00;10.80;99.90
40151;DHT22;25866;52.420;10.640;2022-12-29T07:56:27;10.80;99.90
40151;DHT22;25866;52.420;10.640;2022-12-29T07:58:52;10.80;99.90
40151;DHT22;25866;52.420;10.640;2022-12-29T08:01:18;10.90;99.90
40151;DHT22;25866;52.420;10.640;2022-12-29T08:03:44;11.00;99.90
40151;DHT22;25866;52.420;10.640;2022-12-29T08:06:10;11.00;99.90
40151;DHT22;25866;52.420;10.640;2022-12-29T08:08:36;10.90;99.90
40151;DHT22;25866;52.420;10.640;2022-12-29T08:11:02;10.90;99.90
40151;DHT22;25866;52.420;10.640;2022-12-29T08:13:27;10.90;99.90
40151;DHT22;25866;52.420;10.640;2022-12-29T08:15:54;11.00;99.90
40151;DHT22;25866;52.420;10.640;2022-12-29T08:18:20;11.00;99.90
40151;DHT22;25866;52.420;10.640;2022-12-29T08:20:46;10.90;99.90
40151;DHT22;25866;52.420;10.640;2022-12-29T08:23:12;10.90;99.90
40151;DHT22;25866;52.420;10.640;2022-12-29T08:25:38;11.00;99.90
40151;DHT22;25866;52.420;10.640;2022-12-29T08:28:03;11.00;99.90
40151;DHT22;25866;52.420;10.640;2022-12-29T08:30:29;11.00;99.90
40151;DHT22;25866;52.420;10.640;2022-12-29T08:32:55;11.10;99.90
40151;DHT22;25866;52.420;10.640;2022-12-29T08:35:20;11.20;99.90
40151;DHT22;25866;52.420;10.640;2022-12-29T08:37:46;11.10;99.90
40151;DHT22;25866;52.420;10.640;2022-12-29T08:40:12;11.00;99.90
40151;DHT22;25866;52.420;10.640;2022-12-29T08:42:38;10.90;99.90
40151;DHT22;25866;52.420;10.640;2022-12-29T08:45:05;10.80;99.90
40151;DHT22;25866;52.420;10.640;2022-12-29T08:47:30;10.70;99.90
40151;DHT22;25866;52.420;10.640;2022-12-29T08:49:56;10.60;99.90
40151;DHT22;25866;52.420;10.640;2022-12-29T08:52:22;10.50;99.90
40151;DHT22;25866;52.420;10.640;2022-12-29T08:54:48;10.40;99.90
40151;DHT22;25866;52.420;10.640;2022-12-29T08:57:14;10.50;99.90
40151;DHT22;25866;52.420;10.640;2022-12-29T08:59:39;10.50;99.90
40151;DHT22;25866;52.420;10.640;2022-12-29T09:02:05;10.50;99.90
40151;DHT22;25866;52.420;10.640;2022-12-29T09:04:31;10.50;99.90
40151;DHT22;25866;52.420;10.640;2022-12-29T09:06:57;10.50;99.90
40151;DHT22;25866;52.420;10.640;2022-12-29T09:09:22;10.40;99.90
40151;DHT22;25866;52.420;10.640;2022-12-29T09:11:48;10.30;99.90
40151;DHT22;25866;52.420;10.640;2022-12-29T09:14:14;10.30;99.90
40151;DHT22;25866;52.420;10.640;2022-12-29T09:16:40;10.20;99.90
40151;DHT22;25866;52.420;10.640;2022-12-29T09:19:24;10.20;99.90
40151;DHT22;25866;52.420;10.640;2022-12-29T09:21:50;10.20;99.90
40151;DHT22;25866;52.420;10.640;2022-12-29T09:24:15;10.20;99.90
40151;DHT22;25866;52.420;10.640;2022-12-29T09:29:12;10.10;99.90
40151;DHT22;25866;52.420;10.640;2022-12-29T09:31:38;10.10;99.90
40151;DHT22;25866;52.420;10.640;2022-12-29T09:34:03;10.00;99.90
40151;DHT22;25866;52.420;10.640;2022-12-29T09:36:29;9.90;99.90
40151;DHT22;25866;52.420;10.640;2022-12-29T09:38:55;9.80;99.90
40151;DHT22;25866;52.420;10.640;2022-12-29T09:41:26;9.70;99.90
40151;DHT22;25866;52.420;10.640;2022-12-29T09:44:02;9.70;99.90
40151;DHT22;25866;52.420;10.640;2022-12-29T09:46:43;9.60;99.90
40151;DHT22;25866;52.420;10.640;2022-12-29T09:51:53;9.50;99.90
40151;DHT22;25866;52.420;10.640;2022-12-29T09:54:41;9.50;99.90
40151;DHT22;25866;52.420;10.640;2022-12-29T09:57:26;9.50;99.90
40151;DHT22;25866;52.420;10.640;2022-12-29T10:00:02;9.50;99.90
40151;DHT22;25866;52.420;10.640;2022-12-29T10:02:44;9.40;99.90
40151;DHT22;25866;52.420;10.640;2022-12-29T10:14:21;9.50;99.90
40151;DHT22;25866;52.420;10.640;2022-12-29T10:17:25;9.50;99.90
40151;DHT22;25866;52.420;10.640;2022-12-29T10:25:06;9.50;99.90
40151;DHT22;25866;52.420;10.640;2022-12-29T10:27:35;9.50;99.90
40151;DHT22;25866;52.420;10.640;2022-12-29T10:30:02;9.50;99.90
40151;DHT22;25866;52.420;10.640;2022-12-29T10:32:35;9.60;99.90
40151;DHT22;25866;52.420;10.640;2022-12-29T10:35:14;9.50;99.90
40151;DHT22;25866;52.420;10.640;2022-12-29T10:43:30;9.50;99.90
40151;DHT22;25866;52.420;10.640;2022-12-29T10:46:04;9.60;99.90
40151;DHT22;25866;52.420;10.640;2022-12-29T10:48:34;9.70;99.90
40151;DHT22;25866;52.420;10.640;2022-12-29T10:51:02;9.80;99.90
40151;DHT22;25866;52.420;10.640;2022-12-29T10:56:42;9.90;99.90
40151;DHT22;25866;52.420;10.640;2022-12-29T11:01:53;9.90;99.90
40151;DHT22;25866;52.420;10.640;2022-12-29T11:06:53;9.90;99.90
40151;DHT22;25866;52.420;10.640;2022-12-29T11:09:28;9.90;99.90
40151;DHT22;25866;52.420;10.640;2022-12-29T11:11:55;9.90;99.90
40151;DHT22;25866;52.420;10.640;2022-12-29T11:14:29;9.90;99.90
40151;DHT22;25866;52.420;10.640;2022-12-29T11:17:00;9.90;99.90
40151;DHT22;25866;52.420;10.640;2022-12-29T11:19:28;10.00;99.90
40151;DHT22;25866;52.420;10.640;2022-12-29T11:21:54;10.10;99.90
40151;DHT22;25866;52.420;10.640;2022-12-29T11:24:27;10.10;99.90
40151;DHT22;25866;52.420;10.640;2022-12-29T11:26:54;10.10;99.90
40151;DHT22;25866;52.420;10.640;2022-12-29T11:29:25;10.10;99.90
40151;DHT22;25866;52.420;10.640;2022-12-29T11:31:53;10.10;99.90
40151;DHT22;25866;52.420;10.640;2022-12-29T11:34:24;10.10;99.90
40151;DHT22;25866;52.420;10.640;2022-12-29T11:36:53;10.00;99.90
40151;DHT22;25866;52.420;10.640;2022-12-29T11:42:19;9.90;99.90
40151;DHT22;25866;52.420;10.640;2022-12-29T11:44:47;10.00;99.90
40151;DHT22;25866;52.420;10.640;2022-12-29T11:47:29;10.00;99.90
40151;DHT22;25866;52.420;10.640;2022-12-29T11:50:02;10.00;99.90
40151;DHT22;25866;52.420;10.640;2022-12-29T11:52:32;10.10;99.90
40151;DHT22;25866;52.420;10.640;2022-12-29T11:55:03;10.20;99.90
40151;DHT22;25866;52.420;10.640;2022-12-29T11:57:31;10.10;99.90
40151;DHT22;25866;52.420;10.640;2022-12-29T12:00:00;10.20;99.90
40151;DHT22;25866;52.420;10.640;2022-12-29T12:02:40;10.20;99.90
40151;DHT22;25866;52.420;10.640;2022-12-29T12:10:55;10.20;99.90
40151;DHT22;25866;52.420;10.640;2022-12-29T12:13:31;10.20;99.90
40151;DHT22;25866;52.420;10.640;2022-12-29T12:16:09;10.20;99.90
40151;DHT22;25866;52.420;10.640;2022-12-29T12:21:25;10.20;99.90
40151;DHT22;25866;52.420;10.640;2022-12-29T12:26:39;10.30;99.90
40151;DHT22;25866;52.420;10.640;2022-12-29T12:29:22;10.20;99.90
40151;DHT22;25866;52.420;10.640;2022-12-29T12:34:47;10.30;99.90
40151;DHT22;25866;52.420;10.640;2022-12-29T12:43:44;10.20;99.90
40151;DHT22;25866;52.420;10.640;2022-12-29T12:46:41;10.20;99.90
40151;DHT22;25866;52.420;10.640;2022-12-29T12:52:51;10.50;99.90
40151;DHT22;25866;52.420;10.640;2022-12-29T12:55:58;10.50;99.90
40151;DHT22;25866;52.420;10.640;2022-12-29T13:01:14;10.70;99.90
40151;DHT22;25866;52.420;10.640;2022-12-29T13:09:24;10.50;99.90
40151;DHT22;25866;52.420;10.640;2022-12-29T13:14:57;10.50;99.90
40151;DHT22;25866;52.420;10.640;2022-12-29T13:17:42;10.40;99.90
40151;DHT22;25866;52.420;10.640;2022-12-29T13:22:58;10.50;99.90
40151;DHT22;25866;52.420;10.640;2022-12-29T13:36:36;10.40;99.90
40151;DHT22;25866;52.420;10.640;2022-12-29T13:39:24;10.40;99.90
40151;DHT22;25866;52.420;10.640;2022-12-29T13:41:56;10.30;99.90
40151;DHT22;25866;52.420;10.640;2022-12-29T13:44:32;10.30;99.90
40151;DHT22;25866;52.420;10.640;2022-12-29T13:47:04;10.30;99.90
40151;DHT22;25866;52.420;10.640;2022-12-29T13:49:33;10.30;99.90
40151;DHT22;25866;52.420;10.640;2022-12-29T13:52:25;10.30;99.90
40151;DHT22;25866;52.420;10.640;2022-12-29T13:55:01;10.20;99.90
40151;DHT22;25866;52.420;10.640;2022-12-29T14:00:22;10.20;99.90
40151;DHT22;25866;52.420;10.640;2022-12-29T14:05:28;10.20;99.90
40151;DHT22;25866;52.420;10.640;2022-12-29T14:08:17;10.20;99.90
40151;DHT22;25866;52.420;10.640;2022-12-29T14:10:48;10.20;99.90
40151;DHT22;25866;52.420;10.640;2022-12-29T14:13:18;10.20;99.90
40151;DHT22;25866;52.420;10.640;2022-12-29T14:15:51;10.20;99.90
40151;DHT22;25866;52.420;10.640;2022-12-29T14:18:21;10.30;99.90
40151;DHT22;25866;52.420;10.640;2022-12-29T14:23:37;10.20;99.90
40151;DHT22;25866;52.420;10.640;2022-12-29T14:28:38;10.20;99.90
40151;DHT22;25866;52.420;10.640;2022-12-29T14:36:57;10.20;99.90
40151;DHT22;25866;52.420;10.640;2022-12-29T14:39:37;10.20;99.90
40151;DHT22;25866;52.420;10.640;2022-12-29T14:47:35;10.30;99.90
40151;DHT22;25866;52.420;10.640;2022-12-29T14:50:37;10.20;99.90
40151;DHT22;25866;52.420;10.640;2022-12-29T14:53:40;10.20;99.90
40151;DHT22;25866;52.420;10.640;2022-12-29T14:55:55;10.30;99.90
40151;DHT22;25866;52.420;10.640;2022-12-29T14:58:38;10.40;99.90
40151;DHT22;25866;52.420;10.640;2022-12-29T15:01:17;10.40;99.90
40151;DHT22;25866;52.420;10.640;2022-12-29T15:03:49;10.40;99.90
40151;DHT22;25866;52.420;10.640;2022-12-29T15:06:16;10.30;99.90
40151;DHT22;25866;52.420;10.640;2022-12-29T15:09:10;10.30;99.90
40151;DHT22;25866;52.420;10.640;2022-12-29T15:11:48;10.30;99.90
40151;DHT22;25866;52.420;10.640;2022-12-29T15:14:36;10.30;99.90
40151;DHT22;25866;52.420;10.640;2022-12-29T15:17:20;10.20;99.90
40151;DHT22;25866;52.420;10.640;2022-12-29T15:19:48;10.20;99.90
40151;DHT22;25866;52.420;10.640;2022-12-29T15:22:14;10.20;99.90
40151;DHT22;25866;52.420;10.640;2022-12-29T15:24:44;10.20;99.90
40151;DHT22;25866;52.420;10.640;2022-12-29T15:27:14;10.20;99.90
40151;DHT22;25866;52.420;10.640;2022-12-29T15:29:43;10.20;99.90
40151;DHT22;25866;52.420;10.640;2022-12-29T15:34:47;10.20;99.90
40151;DHT22;25866;52.420;10.640;2022-12-29T15:37:34;10.10;99.90
40151;DHT22;25866;52.420;10.640;2022-12-29T15:40:01;10.10;99.90
40151;DHT22;25866;52.420;10.640;2022-12-29T15:44:56;10.10;99.90
40151;DHT22;25866;52.420;10.640;2022-12-29T15:47:26;10.10;99.90
40151;DHT22;25866;52.420;10.640;2022-12-29T15:50:06;10.10;99.90
40151;DHT22;25866;52.420;10.640;2022-12-29T15:52:34;10.10;99.90
40151;DHT22;25866;52.420;10.640;2022-12-29T15:55:00;10.10;99.90
40151;DHT22;25866;52.420;10.640;2022-12-29T15:57:37;10.00;99.90
40151;DHT22;25866;52.420;10.640;2022-12-29T16:00:27;10.00;99.90
40151;DHT22;25866;52.420;10.640;2022-12-29T16:02:54;10.00;99.90
40151;DHT22;25866;52.420;10.640;2022-12-29T16:05:21;9.90;99.90
40151;DHT22;25866;52.420;10.640;2022-12-29T16:07:58;10.00;99.90
40151;DHT22;25866;52.420;10.640;2022-12-29T16:10:35;9.90;99.90
40151;DHT22;25866;52.420;10.640;2022-12-29T16:15:36;9.80;99.90
40151;DHT22;25866;52.420;10.640;2022-12-29T16:18:02;9.80;99.90
40151;DHT22;25866;52.420;10.640;2022-12-29T16:20:48;9.70;99.90
40151;DHT22;25866;52.420;10.640;2022-12-29T16:23:22;9.70;99.90
40151;DHT22;25866;52.420;10.640;2022-12-29T16:25:48;9.60;99.90
40151;DHT22;25866;52.420;10.640;2022-12-29T16:28:18;9.70;99.90
40151;DHT22;25866;52.420;10.640;2022-12-29T16:30:46;9.70;99.90
40151;DHT22;25866;52.420;10.640;2022-12-29T16:33:52;9.70;99.90
40151;DHT22;25866;52.420;10.640;2022-12-29T16:36:32;9.70;99.90
40151;DHT22;25866;52.420;10.640;2022-12-29T16:41:50;9.60;99.90
40151;DHT22;25866;52.420;10.640;2022-12-29T16:44:22;9.50;99.90
40151;DHT22;25866;52.420;10.640;2022-12-29T16:49:40;9.40;99.90
40151;DHT22;25866;52.420;10.640;2022-12-29T16:52:33;9.40;99.90
40151;DHT22;25866;52.420;10.640;2022-12-29T16:55:00;9.40;99.90
40151;DHT22;25866;52.420;10.640;2022-12-29T16:57:33;9.40;99.90
40151;DHT22;25866;52.420;10.640;2022-12-29T17:00:05;9.40;99.90
40151;DHT22;25866;52.420;10.640;2022-12-29T17:02:32;9.40;99.90
40151;DHT22;25866;52.420;10.640;2022-12-29T17:04:59;9.40;99.90
40151;DHT22;25866;52.420;10.640;2022-12-29T17:07:26;9.30;99.90
40151;DHT22;25866;52.420;10.640;2022-12-29T17:09:52;9.30;99.90
40151;DHT22;25866;52.420;10.640;2022-12-29T17:12:26;9.30;99.90
40151;DHT22;25866;52.420;10.640;2022-12-29T17:15:21;9.20;99.90
40151;DHT22;25866;52.420;10.640;2022-12-29T17:17:49;9.20;99.90
40151;DHT22;25866;52.420;10.640;2022-12-29T17:22:45;9.20;99.90
40151;DHT22;25866;52.420;10.640;2022-12-29T17:25:13;9.20;99.90
40151;DHT22;25866;52.420;10.640;2022-12-29T17:27:43;9.20;99.90
40151;DHT22;25866;52.420;10.640;2022-12-29T17:30:18;9.10;99.90
40151;DHT22;25866;52.420;10.640;2022-12-29T17:32:53;9.10;99.90
40151;DHT22;25866;52.420;10.640;2022-12-29T17:35:22;9.20;99.90
40151;DHT22;25866;52.420;10.640;2022-12-29T17:37:49;9.10;99.90
40151;DHT22;25866;52.420;10.640;2022-12-29T17:40:19;9.10;99.90
40151;DHT22;25866;52.420;10.640;2022-12-29T17:42:48;9.10;99.90
40151;DHT22;25866;52.420;10.640;2022-12-29T17:45:27;9.10;99.90
40151;DHT22;25866;52.420;10.640;2022-12-29T17:47:54;9.10;99.90
40151;DHT22;25866;52.420;10.640;2022-12-29T17:50:22;9.10;99.90
40151;DHT22;25866;52.420;10.640;2022-12-29T17:52:59;9.10;99.90
40151;DHT22;25866;52.420;10.640;2022-12-29T17:55:25;9.20;99.90
40151;DHT22;25866;52.420;10.640;2022-12-29T17:57:51;9.20;99.90
40151;DHT22;25866;52.420;10.640;2022-12-29T18:00:22;9.20;99.90
40151;DHT22;25866;52.420;10.640;2022-12-29T18:02:48;9.20;99.90
40151;DHT22;25866;52.420;10.640;2022-12-29T18:05:27;9.20;99.90
40151;DHT22;25866;52.420;10.640;2022-12-29T18:07:55;9.30;99.90
40151;DHT22;25866;52.420;10.640;2022-12-29T18:10:23;9.30;99.90
40151;DHT22;25866;52.420;10.640;2022-12-29T18:12:50;9.20;99.90
40151;DHT22;25866;52.420;10.640;2022-12-29T18:15:22;9.30;99.90
40151;DHT22;25866;52.420;10.640;2022-12-29T18:17:53;9.20;99.90
40151;DHT22;25866;52.420;10.640;2022-12-29T18:20:22;9.20;99.90
40151;DHT22;25866;52.420;10.640;2022-12-29T18:22:48;9.20;99.90
40151;DHT22;25866;52.420;10.640;2022-12-29T18:25:32;9.10;99.90